| time (UTC) | temp F | wind direction | speed MPH | gust MPH | rain 1hr in | rain 24hr in | rain mn in | humidity % | barometer mb |
| 20260506004856 | 78 | 350 | 0.0 | 1.0 | 0.00 | 0.00 | 0.00 | 65 | 1007.7 |
| 20260506004355 | 79 | 42 | 0.0 | 1.0 | 0.00 | 0.00 | 0.00 | 64 | 1007.5 |
| 20260506003850 | 79 | 272 | 0.0 | 1.0 | 0.00 | 0.00 | 0.00 | 64 | 1007.3 |
| 20260506003347 | 80 | 275 | 0.0 | 1.0 | 0.00 | 0.00 | 0.00 | 63 | 1007.2 |
| 20260506002843 | 80 | 302 | 0.0 | 2.0 | 0.00 | 0.00 | 0.00 | 62 | 1007.0 |
| 20260506002340 | 81 | 14 | 0.0 | 2.0 | 0.00 | 0.00 | 0.00 | 62 | 1007.3 |
| 20260506001835 | 81 | 32 | 1.0 | 1.0 | 0.00 | 0.00 | 0.00 | 62 | 1007.5 |
| 20260506001333 | 82 | 256 | 0.0 | 0.0 | 0.00 | 0.00 | 0.00 | 61 | 1007.4 |
| 20260506000829 | 82 | 265 | 1.0 | 1.0 | 0.00 | 0.00 | 0.00 | 60 | 1007.4 |
| 20260506000329 | 82 | 344 | 0.0 | 0.0 | 0.00 | 0.00 | 0.00 | 60 | 1006.8 |
| 20260505235824 | 83 | 348 | 0.0 | 3.0 | 0.00 | 0.00 | 0.00 | 59 | 1006.6 |
| 20260505235321 | 84 | 329 | 1.0 | 4.0 | 0.00 | 0.00 | 0.00 | 58 | 1006.3 |
| 20260505234818 | 85 | 215 | 0.0 | 3.0 | 0.00 | 0.00 | 0.00 | 55 | 1006.7 |
| 20260505234316 | 85 | 271 | 0.0 | 6.0 | 0.00 | 0.00 | 0.00 | 52 | 1006.6 |
| 20260505233813 | 85 | 303 | 1.0 | 2.0 | 0.00 | 0.00 | 0.00 | 51 | 1006.6 |
| 20260505233311 | 85 | 255 | 0.0 | 2.0 | 0.00 | 0.00 | 0.00 | 53 | 1006.5 |
| 20260505232808 | 86 | 12 | 1.0 | 2.0 | 0.00 | 0.00 | 0.00 | 67 | 1006.4 |
| 20260505232305 | 86 | 214 | 2.0 | 7.0 | 0.00 | 0.00 | 0.00 | 66 | 1006.1 |
| 20260505231801 | 86 | 164 | 4.0 | 6.0 | 0.00 | 0.00 | 0.00 | 66 | 1006.0 |
| 20260505231300 | 87 | 135 | 4.0 | 8.0 | 0.00 | 0.00 | 0.00 | 65 | 1005.9 |
| 20260505230758 | 87 | 97 | 1.0 | 4.0 | 0.00 | 0.00 | 0.00 | 64 | 1005.7 |
| 20260505230254 | 87 | 148 | 3.0 | 4.0 | 0.00 | 0.00 | 0.00 | 64 | 1005.7 |
| 20260505225751 | 88 | 67 | 2.0 | 4.0 | 0.00 | 0.00 | 0.00 | 63 | 1005.8 |
| 20260505225249 | 88 | 349 | 1.0 | 4.0 | 0.00 | 0.00 | 0.00 | 62 | 1005.8 |
| 20260505224743 | 90 | 99 | 5.0 | 8.0 | 0.00 | 0.00 | 0.00 | 60 | 1005.8 |
| 20260505224241 | 90 | 230 | 2.0 | 3.0 | 0.00 | 0.00 | 0.00 | 58 | 1005.7 |
| 20260505223738 | 90 | 26 | 2.0 | 3.0 | 0.00 | 0.00 | 0.00 | 56 | 1005.8 |
| 20260505223235 | 90 | 186 | 0.0 | 1.0 | 0.00 | 0.00 | 0.00 | 53 | 1005.5 |
| 20260505222731 | 90 | 95 | 2.0 | 4.0 | 0.00 | 0.00 | 0.00 | 52 | 1005.6 |
| 20260505222227 | 90 | 322 | 2.0 | 4.0 | 0.00 | 0.00 | 0.00 | 53 | 1005.4 |
| 20260505221724 | 90 | 209 | 1.0 | 2.0 | 0.00 | 0.00 | 0.00 | 53 | 1005.3 |
| 20260505221221 | 91 | 86 | 1.0 | 3.0 | 0.00 | 0.00 | 0.00 | 51 | 1005.7 |
| 20260505220718 | 92 | 95 | 3.0 | 3.0 | 0.00 | 0.00 | 0.00 | 51 | 1005.4 |
| 20260505220216 | 94 | 219 | 2.0 | 9.0 | 0.00 | 0.00 | 0.00 | 49 | 1005.6 |
| 20260505215713 | 93 | 217 | 1.0 | 3.0 | 0.00 | 0.00 | 0.00 | 50 | 1005.6 |
| 20260505215211 | 94 | 271 | 0.0 | 3.0 | 0.00 | 0.00 | 0.00 | 49 | 1005.7 |
| 20260505214708 | 92 | 94 | 0.0 | 4.0 | 0.00 | 0.00 | 0.00 | 51 | 1005.6 |
| 20260505214206 | 91 | 171 | 3.0 | 4.0 | 0.00 | 0.00 | 0.00 | 51 | 1005.8 |
| 20260505213703 | 92 | 309 | 1.0 | 3.0 | 0.00 | 0.00 | 0.00 | 51 | 1005.8 |
| 20260505213200 | 92 | 15 | 2.0 | 4.0 | 0.00 | 0.00 | 0.00 | 51 | 1005.8 |
| 20260505212656 | 92 | 193 | 2.0 | 4.0 | 0.00 | 0.00 | 0.00 | 51 | 1005.9 |
| 20260505212153 | 91 | 200 | 2.0 | 4.0 | 0.00 | 0.00 | 0.00 | 52 | 1006.0 |
| 20260505211650 | 93 | 244 | 3.0 | 6.0 | 0.00 | 0.00 | 0.00 | 51 | 1005.9 |
| 20260505211148 | 92 | 181 | 1.0 | 4.0 | 0.00 | 0.00 | 0.00 | 51 | 1006.0 |
| 20260505210644 | 92 | 251 | 2.0 | 7.0 | 0.00 | 0.00 | 0.00 | 52 | 1005.8 |
| 20260505210141 | 92 | 226 | 3.0 | 6.0 | 0.00 | 0.00 | 0.00 | 52 | 1006.1 |
| 20260505205638 | 91 | 119 | 2.0 | 7.0 | 0.00 | 0.00 | 0.00 | 54 | 1006.2 |
| 20260505205136 | 91 | 151 | 3.0 | 4.0 | 0.00 | 0.00 | 0.00 | 54 | 1006.2 |
| 20260505204633 | 90 | 227 | 5.0 | 7.0 | 0.00 | 0.00 | 0.00 | 54 | 1006.4 |
| 20260505204131 | 89 | 219 | 2.0 | 6.0 | 0.00 | 0.00 | 0.00 | 54 | 1006.3 |
| 20260505203628 | 90 | 73 | 3.0 | 9.0 | 0.00 | 0.00 | 0.00 | 54 | 1006.5 |
| 20260505203125 | 89 | 206 | 1.0 | 7.0 | 0.00 | 0.00 | 0.00 | 57 | 1006.5 |
| 20260505202620 | 89 | 190 | 3.0 | 7.0 | 0.00 | 0.00 | 0.00 | 56 | 1006.4 |
| 20260505202116 | 89 | 194 | 5.0 | 7.0 | 0.00 | 0.00 | 0.00 | 56 | 1006.5 |
| 20260505201613 | 92 | 3 | 3.0 | 4.0 | 0.00 | 0.00 | 0.00 | 55 | 1006.5 |
| 20260505201111 | 91 | 359 | 2.0 | 6.0 | 0.00 | 0.00 | 0.00 | 57 | 1006.4 |
| 20260505200609 | 90 | 263 | 2.0 | 4.0 | 0.00 | 0.00 | 0.00 | 57 | 1006.5 |
| 20260505200105 | 89 | 21 | 2.0 | 3.0 | 0.00 | 0.00 | 0.00 | 59 | 1006.4 |
| 20260505195601 | 89 | 26 | 1.0 | 4.0 | 0.00 | 0.00 | 0.00 | 59 | 1006.6 |
| 20260505195059 | 89 | 172 | 3.0 | 13.0 | 0.00 | 0.00 | 0.00 | 59 | 1006.7 |
| 20260505194556 | 90 | 165 | 1.0 | 7.0 | 0.00 | 0.00 | 0.00 | 61 | 1006.5 |
| 20260505194051 | 88 | 37 | 1.0 | 4.0 | 0.00 | 0.00 | 0.00 | 62 | 1006.8 |
| 20260505193549 | 88 | 108 | 2.0 | 8.0 | 0.00 | 0.00 | 0.00 | 62 | 1006.5 |
| 20260505193046 | 88 | 66 | 2.0 | 7.0 | 0.00 | 0.00 | 0.00 | 63 | 1006.8 |
| 20260505192544 | 88 | 170 | 2.0 | 9.0 | 0.00 | 0.00 | 0.00 | 63 | 1006.6 |
| 20260505192042 | 88 | 187 | 2.0 | 6.0 | 0.00 | 0.00 | 0.00 | 63 | 1006.9 |
| 20260505191540 | 87 | 139 | 3.0 | 7.0 | 0.00 | 0.00 | 0.00 | 64 | 1006.7 |
| 20260505191037 | 86 | 33 | 2.0 | 4.0 | 0.00 | 0.00 | 0.00 | 65 | 1007.0 |
| 20260505190532 | 85 | 134 | 1.0 | 6.0 | 0.00 | 0.00 | 0.00 | 65 | 1006.9 |
| 20260505190028 | 85 | 218 | 4.0 | 9.0 | 0.00 | 0.00 | 0.00 | 65 | 1007.0 |
| 20260505185525 | 85 | 217 | 3.0 | 7.0 | 0.00 | 0.00 | 0.00 | 65 | 1007.0 |
| 20260505185021 | 85 | 340 | 1.0 | 6.0 | 0.00 | 0.00 | 0.00 | 66 | 1007.0 |
| 20260505184518 | 84 | 36 | 2.0 | 6.0 | 0.00 | 0.00 | 0.00 | 66 | 1007.0 |
| 20260505184015 | 84 | 164 | 3.0 | 8.0 | 0.00 | 0.00 | 0.00 | 66 | 1007.0 |
| 20260505183512 | 85 | 0 | 4.0 | 9.0 | 0.00 | 0.00 | 0.00 | 66 | 1007.1 |
| 20260505183009 | 85 | 129 | 1.0 | 4.0 | 0.00 | 0.00 | 0.00 | 66 | 1007.1 |
| 20260505182506 | 84 | 218 | 3.0 | 8.0 | 0.00 | 0.00 | 0.00 | 67 | 1007.2 |
| 20260505182002 | 83 | 153 | 2.0 | 9.0 | 0.00 | 0.00 | 0.00 | 67 | 1007.1 |
| 20260505181459 | 84 | 161 | 4.0 | 6.0 | 0.00 | 0.00 | 0.00 | 66 | 1007.3 |
| 20260505180956 | 84 | 216 | 2.0 | 4.0 | 0.00 | 0.00 | 0.00 | 66 | 1007.2 |
| 20260505180452 | 84 | 170 | 2.0 | 13.0 | 0.00 | 0.00 | 0.00 | 66 | 1007.1 |
| 20260505175949 | 84 | 136 | 1.0 | 6.0 | 0.00 | 0.00 | 0.00 | 66 | 1007.1 |
| 20260505175445 | 84 | 137 | 2.0 | 7.0 | 0.00 | 0.00 | 0.00 | 66 | 1007.2 |
| 20260505174942 | 84 | 109 | 3.0 | 7.0 | 0.00 | 0.00 | 0.00 | 66 | 1007.1 |
| 20260505174439 | 83 | 83 | 3.0 | 9.0 | 0.00 | 0.00 | 0.00 | 66 | 1007.3 |
| 20260505173935 | 83 | 214 | 3.0 | 6.0 | 0.00 | 0.00 | 0.00 | 67 | 1007.2 |
| 20260505173432 | 84 | 299 | 2.0 | 6.0 | 0.00 | 0.00 | 0.00 | 65 | 1007.3 |
| 20260505172929 | 84 | 72 | 3.0 | 6.0 | 0.00 | 0.00 | 0.00 | 67 | 1007.3 |
| 20260505172427 | 83 | 199 | 5.0 | 9.0 | 0.00 | 0.00 | 0.00 | 67 | 1007.4 |
| 20260505171926 | 82 | 118 | 2.0 | 9.0 | 0.00 | 0.00 | 0.00 | 68 | 1007.2 |
| 20260505171424 | 82 | 74 | 1.0 | 6.0 | 0.00 | 0.00 | 0.00 | 68 | 1007.6 |
| 20260505170920 | 82 | 192 | 2.0 | 11.0 | 0.00 | 0.00 | 0.00 | 69 | 1007.3 |
| 20260505170417 | 82 | 159 | 4.0 | 7.0 | 0.00 | 0.00 | 0.00 | 68 | 1007.5 |
| 20260505165912 | 82 | 267 | 2.0 | 8.0 | 0.00 | 0.00 | 0.00 | 68 | 1007.6 |
| 20260505165408 | 82 | 143 | 1.0 | 8.0 | 0.00 | 0.00 | 0.00 | 69 | 1007.3 |
| 20260505164903 | 82 | 84 | 2.0 | 9.0 | 0.00 | 0.00 | 0.00 | 68 | 1007.2 |
| 20260505164400 | 82 | 219 | 5.0 | 14.0 | 0.00 | 0.00 | 0.00 | 69 | 1007.3 |
| 20260505163859 | 82 | 328 | 3.0 | 4.0 | 0.00 | 0.00 | 0.00 | 69 | 1007.4 |
| 20260505163357 | 82 | 56 | 2.0 | 9.0 | 0.00 | 0.00 | 0.00 | 68 | 1007.3 |
| 20260505162855 | 81 | 143 | 3.0 | 7.0 | 0.00 | 0.00 | 0.00 | 69 | 1007.2 |
| 20260505162351 | 80 | 246 | 6.0 | 15.0 | 0.00 | 0.00 | 0.00 | 71 | 1007.2 |
| 20260505161848 | 82 | 3 | 5.0 | 11.0 | 0.00 | 0.00 | 0.00 | 69 | 1007.1 |
| 20260505161345 | 81 | 139 | 8.0 | 10.0 | 0.00 | 0.00 | 0.00 | 69 | 1007.0 |
| 20260505160842 | 80 | 208 | 2.0 | 10.0 | 0.00 | 0.00 | 0.00 | 70 | 1007.0 |
| 20260505160341 | 81 | 284 | 2.0 | 8.0 | 0.00 | 0.00 | 0.00 | 70 | 1006.8 |
| 20260505153320 | 80 | 75 | 3.0 | 4.0 | 0.00 | 0.00 | 0.00 | 72 | 1007.1 |
| 20260505152817 | 80 | 191 | 4.0 | 6.0 | 0.00 | 0.00 | 0.00 | 72 | 1007.3 |
| 20260505152314 | 79 | 177 | 2.0 | 10.0 | 0.00 | 0.00 | 0.00 | 74 | 1007.1 |
| 20260505151813 | 79 | 48 | 2.0 | 3.0 | 0.00 | 0.00 | 0.00 | 75 | 1007.2 |
| 20260505151310 | 78 | 147 | 1.0 | 3.0 | 0.00 | 0.00 | 0.00 | 75 | 1007.2 |
| 20260505150807 | 77 | 41 | 3.0 | 7.0 | 0.00 | 0.00 | 0.00 | 76 | 1007.1 |
| 20260505150304 | 77 | 124 | 3.0 | 7.0 | 0.00 | 0.00 | 0.00 | 77 | 1007.1 |
| 20260505140229 | 73 | 183 | 2.0 | 4.0 | 0.00 | 0.00 | 0.00 | 83 | 1007.0 |
| 20260505130153 | 72 | 106 | 3.0 | 9.0 | 0.00 | 0.00 | 0.00 | 84 | 1006.9 |
| 20260505124643 | 72 | 186 | 0.0 | 3.0 | 0.00 | 0.00 | 0.00 | 85 | 1006.8 |
| 20260505124139 | 72 | 144 | 2.0 | 6.0 | 0.00 | 0.00 | 0.00 | 85 | 1006.7 |
| 20260505123635 | 71 | 211 | 3.0 | 6.0 | 0.00 | 0.00 | 0.00 | 85 | 1006.5 |
| 20260505123132 | 71 | 133 | 2.0 | 8.0 | 0.00 | 0.00 | 0.00 | 86 | 1006.6 |
| 20260505122629 | 71 | 62 | 0.0 | 4.0 | 0.00 | 0.00 | 0.00 | 86 | 1006.5 |
| 20260505122126 | 71 | 58 | 1.0 | 6.0 | 0.00 | 0.00 | 0.00 | 85 | 1006.5 |
| 20260505121622 | 71 | 139 | 2.0 | 9.0 | 0.00 | 0.00 | 0.00 | 86 | 1006.4 |
| 20260505121119 | 71 | 211 | 4.0 | 6.0 | 0.00 | 0.00 | 0.00 | 86 | 1006.5 |
| 20260505120615 | 71 | 213 | 4.0 | 7.0 | 0.00 | 0.00 | 0.00 | 86 | 1006.3 |
| 20260505120112 | 71 | 184 | 2.0 | 3.0 | 0.00 | 0.00 | 0.00 | 86 | 1006.4 |
| 20260505115606 | 71 | 17 | 4.0 | 7.0 | 0.00 | 0.00 | 0.00 | 86 | 1006.3 |
| 20260505115104 | 71 | 143 | 1.0 | 4.0 | 0.00 | 0.00 | 0.00 | 85 | 1006.4 |
| 20260505114600 | 71 | 89 | 2.0 | 4.0 | 0.00 | 0.00 | 0.00 | 85 | 1006.2 |
| 20260505114057 | 71 | 222 | 2.0 | 4.0 | 0.00 | 0.00 | 0.00 | 85 | 1006.4 |
| 20260505113553 | 71 | 174 | 3.0 | 4.0 | 0.00 | 0.00 | 0.00 | 86 | 1006.2 |
| 20260505113050 | 71 | 126 | 0.0 | 4.0 | 0.00 | 0.00 | 0.00 | 85 | 1006.0 |
| 20260505112546 | 71 | 334 | 3.0 | 3.0 | 0.00 | 0.00 | 0.00 | 85 | 1005.9 |
| 20260505112045 | 71 | 95 | 1.0 | 3.0 | 0.00 | 0.00 | 0.00 | 85 | 1005.9 |
| 20260505111538 | 71 | 175 | 4.0 | 9.0 | 0.00 | 0.00 | 0.00 | 85 | 1006.3 |
| 20260505111035 | 71 | 242 | 6.0 | 8.0 | 0.00 | 0.00 | 0.00 | 86 | 1005.9 |
| 20260505110531 | 71 | 129 | 2.0 | 7.0 | 0.00 | 0.00 | 0.00 | 86 | 1006.0 |
| 20260505102004 | 71 | 91 | 4.0 | 9.0 | 0.00 | 0.00 | 0.00 | 85 | 1006.1 |
| 20260505101501 | 71 | 154 | 2.0 | 6.0 | 0.00 | 0.00 | 0.00 | 85 | 1006.1 |
| 20260505100958 | 71 | 206 | 6.0 | 13.0 | 0.00 | 0.00 | 0.00 | 84 | 1006.1 |
| 20260505100455 | 71 | 141 | 2.0 | 4.0 | 0.00 | 0.00 | 0.00 | 84 | 1006.3 |
| 20260505095951 | 71 | 232 | 1.0 | 7.0 | 0.00 | 0.00 | 0.00 | 84 | 1006.2 |
| 20260505095448 | 72 | 350 | 4.0 | 9.0 | 0.00 | 0.00 | 0.00 | 84 | 1006.3 |
| 20260505094944 | 72 | 248 | 3.0 | 6.0 | 0.00 | 0.00 | 0.00 | 84 | 1006.2 |
| 20260505094441 | 72 | 264 | 2.0 | 6.0 | 0.00 | 0.00 | 0.00 | 84 | 1006.2 |
| 20260505093937 | 72 | 259 | 3.0 | 8.0 | 0.00 | 0.00 | 0.00 | 84 | 1006.2 |
| 20260505093434 | 71 | 6 | 0.0 | 6.0 | 0.00 | 0.00 | 0.00 | 84 | 1006.5 |
| 20260505092931 | 71 | 112 | 4.0 | 8.0 | 0.00 | 0.00 | 0.00 | 85 | 1006.4 |
| 20260505092429 | 71 | 99 | 4.0 | 6.0 | 0.00 | 0.00 | 0.00 | 85 | 1006.6 |
| 20260505091926 | 71 | 202 | 1.0 | 3.0 | 0.00 | 0.00 | 0.00 | 85 | 1006.7 |
| 20260505091424 | 71 | 191 | 1.0 | 4.0 | 0.00 | 0.00 | 0.00 | 85 | 1006.7 |
| 20260505090921 | 71 | 331 | 3.0 | 7.0 | 0.00 | 0.00 | 0.00 | 85 | 1006.7 |
| 20260505090420 | 71 | 269 | 1.0 | 9.0 | 0.00 | 0.00 | 0.00 | 85 | 1006.6 |
| 20260505085917 | 71 | 134 | 2.0 | 4.0 | 0.00 | 0.00 | 0.00 | 85 | 1006.5 |
| 20260505085415 | 71 | 72 | 3.0 | 4.0 | 0.00 | 0.00 | 0.00 | 85 | 1006.5 |
| 20260505084912 | 71 | 102 | 5.0 | 8.0 | 0.00 | 0.00 | 0.00 | 85 | 1006.4 |
| 20260505084410 | 71 | 234 | 2.0 | 4.0 | 0.00 | 0.00 | 0.00 | 85 | 1006.7 |
| 20260505083908 | 71 | 159 | 2.0 | 6.0 | 0.00 | 0.00 | 0.00 | 85 | 1006.6 |
| 20260505083405 | 71 | 128 | 2.0 | 6.0 | 0.00 | 0.00 | 0.00 | 85 | 1006.6 |
| 20260505082901 | 71 | 87 | 2.0 | 7.0 | 0.00 | 0.00 | 0.00 | 85 | 1006.6 |
| 20260505082357 | 71 | 358 | 6.0 | 9.0 | 0.00 | 0.00 | 0.00 | 85 | 1006.5 |
| 20260505081854 | 71 | 167 | 3.0 | 6.0 | 0.00 | 0.00 | 0.00 | 85 | 1006.8 |
| 20260505081351 | 71 | 100 | 1.0 | 4.0 | 0.00 | 0.00 | 0.00 | 85 | 1006.9 |
| 20260505080848 | 71 | 131 | 6.0 | 9.0 | 0.00 | 0.00 | 0.00 | 85 | 1006.6 |
| 20260505080344 | 71 | 154 | 2.0 | 6.0 | 0.00 | 0.00 | 0.00 | 84 | 1006.8 |
| 20260505075839 | 71 | 239 | 4.0 | 8.0 | 0.00 | 0.00 | 0.00 | 84 | 1006.7 |
| 20260505075336 | 71 | 177 | 3.0 | 9.0 | 0.00 | 0.00 | 0.00 | 84 | 1006.8 |
| 20260505074833 | 71 | 106 | 4.0 | 7.0 | 0.00 | 0.00 | 0.00 | 84 | 1006.9 |
| 20260505074330 | 71 | 188 | 2.0 | 15.0 | 0.00 | 0.00 | 0.00 | 83 | 1006.9 |
| 20260505073828 | 71 | 79 | 2.0 | 3.0 | 0.00 | 0.00 | 0.00 | 83 | 1007.1 |
| 20260505073326 | 71 | 165 | 4.0 | 9.0 | 0.00 | 0.00 | 0.00 | 83 | 1007.1 |
| 20260505072822 | 71 | 184 | 5.0 | 7.0 | 0.00 | 0.00 | 0.00 | 83 | 1007.0 |
| 20260505072319 | 72 | 129 | 4.0 | 9.0 | 0.00 | 0.00 | 0.00 | 82 | 1007.3 |
| 20260505071815 | 72 | 188 | 5.0 | 7.0 | 0.00 | 0.00 | 0.00 | 82 | 1007.5 |
| 20260505071311 | 72 | 242 | 2.0 | 7.0 | 0.00 | 0.00 | 0.00 | 82 | 1007.3 |
| 20260505070810 | 72 | 135 | 5.0 | 7.0 | 0.00 | 0.00 | 0.00 | 82 | 1007.4 |
| 20260505070306 | 72 | 97 | 4.0 | 6.0 | 0.00 | 0.00 | 0.00 | 81 | 1007.3 |
| 20260505065800 | 72 | 205 | 5.0 | 11.0 | 0.00 | 0.00 | 0.00 | 81 | 1007.6 |
| 20260505065258 | 72 | 122 | 1.0 | 7.0 | 0.00 | 0.00 | 0.00 | 81 | 1007.4 |
| 20260505064755 | 72 | 190 | 1.0 | 7.0 | 0.00 | 0.00 | 0.00 | 81 | 1007.6 |
| 20260505064252 | 72 | 9 | 3.0 | 9.0 | 0.00 | 0.00 | 0.00 | 80 | 1007.7 |
| 20260505063750 | 72 | 148 | 4.0 | 7.0 | 0.00 | 0.00 | 0.00 | 80 | 1007.7 |
| 20260505063246 | 72 | 186 | 2.0 | 7.0 | 0.00 | 0.00 | 0.00 | 80 | 1007.7 |
| 20260505062743 | 72 | 160 | 3.0 | 9.0 | 0.00 | 0.00 | 0.00 | 80 | 1007.5 |
| 20260505062240 | 72 | 266 | 2.0 | 4.0 | 0.00 | 0.00 | 0.00 | 80 | 1007.5 |
| 20260505061737 | 72 | 105 | 3.0 | 14.0 | 0.00 | 0.00 | 0.00 | 79 | 1007.8 |
| 20260505061235 | 72 | 146 | 4.0 | 4.0 | 0.00 | 0.00 | 0.00 | 79 | 1007.7 |
| 20260505060732 | 72 | 99 | 2.0 | 6.0 | 0.00 | 0.00 | 0.00 | 79 | 1007.8 |
| 20260505060229 | 72 | 121 | 3.0 | 9.0 | 0.00 | 0.00 | 0.00 | 78 | 1008.0 |
| 20260505055724 | 72 | 144 | 2.0 | 6.0 | 0.00 | 0.00 | 0.00 | 78 | 1008.0 |
| 20260505055221 | 72 | 248 | 3.0 | 6.0 | 0.00 | 0.00 | 0.00 | 78 | 1007.9 |
| 20260505054718 | 73 | 80 | 4.0 | 6.0 | 0.00 | 0.00 | 0.00 | 77 | 1008.2 |
| 20260505054216 | 73 | 193 | 2.0 | 10.0 | 0.00 | 0.00 | 0.00 | 77 | 1008.0 |
| 20260505053714 | 73 | 23 | 4.0 | 11.0 | 0.00 | 0.00 | 0.00 | 77 | 1008.4 |
| 20260505053210 | 73 | 134 | 2.0 | 6.0 | 0.00 | 0.00 | 0.00 | 77 | 1008.3 |
| 20260505052708 | 73 | 113 | 2.0 | 6.0 | 0.00 | 0.00 | 0.00 | 76 | 1008.2 |
| 20260505052204 | 73 | 134 | 2.0 | 4.0 | 0.00 | 0.00 | 0.00 | 76 | 1008.3 |
| 20260505051701 | 73 | 97 | 2.0 | 10.0 | 0.00 | 0.00 | 0.00 | 76 | 1008.4 |
| 20260505051159 | 73 | 220 | 3.0 | 6.0 | 0.00 | 0.00 | 0.00 | 76 | 1008.4 |
| 20260505050657 | 73 | 180 | 4.0 | 9.0 | 0.00 | 0.00 | 0.00 | 75 | 1008.4 |
| 20260505050156 | 73 | 105 | 2.0 | 11.0 | 0.00 | 0.00 | 0.00 | 75 | 1008.3 |
| 20260505041631 | 74 | 128 | 3.0 | 14.0 | 0.00 | 0.00 | 0.00 | 73 | 1008.6 |
| 20260505041128 | 74 | 200 | 3.0 | 15.0 | 0.00 | 0.00 | 0.00 | 72 | 1008.6 |
| 20260505040625 | 74 | 140 | 3.0 | 6.0 | 0.00 | 0.00 | 0.00 | 72 | 1008.7 |
| 20260505040122 | 74 | 249 | 3.0 | 7.0 | 0.00 | 0.00 | 0.00 | 72 | 1008.6 |
| 20260505035618 | 74 | 264 | 4.0 | 8.0 | 0.00 | 0.00 | 0.00 | 72 | 1008.7 |
| 20260505035115 | 74 | 128 | 4.0 | 7.0 | 0.00 | 0.00 | 0.00 | 72 | 1008.6 |
| 20260505034612 | 74 | 135 | 4.0 | 7.0 | 0.00 | 0.00 | 0.00 | 72 | 1008.4 |
| 20260505034108 | 74 | 297 | 1.0 | 3.0 | 0.00 | 0.00 | 0.00 | 71 | 1008.4 |
| 20260505033605 | 74 | 136 | 3.0 | 7.0 | 0.00 | 0.00 | 0.00 | 71 | 1008.5 |
| 20260505033104 | 74 | 139 | 2.0 | 6.0 | 0.00 | 0.00 | 0.00 | 71 | 1008.6 |
| 20260505032601 | 74 | 144 | 2.0 | 7.0 | 0.00 | 0.00 | 0.00 | 71 | 1008.6 |
| 20260505032057 | 74 | 204 | 3.0 | 6.0 | 0.00 | 0.00 | 0.00 | 71 | 1008.8 |
| 20260505031555 | 75 | 81 | 2.0 | 8.0 | 0.00 | 0.00 | 0.00 | 70 | 1008.7 |
| 20260505031051 | 74 | 207 | 2.0 | 6.0 | 0.00 | 0.00 | 0.00 | 70 | 1008.7 |
| 20260505030548 | 75 | 144 | 2.0 | 7.0 | 0.00 | 0.00 | 0.00 | 70 | 1008.5 |
| 20260505030044 | 74 | 120 | 3.0 | 4.0 | 0.00 | 0.00 | 0.00 | 70 | 1008.5 |
| 20260505025540 | 75 | 181 | 2.0 | 10.0 | 0.00 | 0.00 | 0.00 | 70 | 1008.7 |
| 20260505025039 | 75 | 238 | 2.0 | 6.0 | 0.00 | 0.00 | 0.00 | 70 | 1008.7 |
| 20260505024536 | 75 | 138 | 2.0 | 3.0 | 0.00 | 0.00 | 0.00 | 70 | 1008.7 |
| 20260505024032 | 75 | 137 | 1.0 | 3.0 | 0.00 | 0.00 | 0.00 | 69 | 1008.8 |
| 20260505023529 | 75 | 37 | 2.0 | 7.0 | 0.00 | 0.00 | 0.00 | 69 | 1008.6 |
| 20260505023027 | 75 | 144 | 3.0 | 6.0 | 0.00 | 0.00 | 0.00 | 69 | 1008.3 |
| 20260505022525 | 75 | 281 | 3.0 | 7.0 | 0.00 | 0.00 | 0.00 | 69 | 1008.4 |
| 20260505022022 | 75 | 138 | 3.0 | 7.0 | 0.00 | 0.00 | 0.00 | 68 | 1008.6 |
| 20260505021518 | 75 | 99 | 3.0 | 14.0 | 0.00 | 0.00 | 0.00 | 68 | 1008.3 |
| 20260505021015 | 75 | 314 | 2.0 | 4.0 | 0.00 | 0.00 | 0.00 | 68 | 1008.3 |
| 20260505020515 | 75 | 49 | 2.0 | 8.0 | 0.00 | 0.00 | 0.00 | 68 | 1008.3 |
| 20260505020012 | 76 | 126 | 3.0 | 4.0 | 0.00 | 0.00 | 0.00 | 68 | 1008.3 |
| 20260505015509 | 76 | 176 | 6.0 | 8.0 | 0.00 | 0.00 | 0.00 | 67 | 1008.5 |
| 20260505015006 | 76 | 157 | 3.0 | 6.0 | 0.00 | 0.00 | 0.00 | 68 | 1008.5 |
| 20260505014503 | 76 | 96 | 2.0 | 9.0 | 0.00 | 0.00 | 0.00 | 67 | 1008.5 |
| 20260505014000 | 76 | 154 | 3.0 | 8.0 | 0.00 | 0.00 | 0.00 | 66 | 1008.4 |
| 20260505013457 | 76 | 117 | 4.0 | 10.0 | 0.00 | 0.00 | 0.00 | 66 | 1008.5 |
| 20260505012954 | 76 | 258 | 4.0 | 9.0 | 0.00 | 0.00 | 0.00 | 66 | 1008.4 |
| 20260505012452 | 76 | 120 | 6.0 | 8.0 | 0.00 | 0.00 | 0.00 | 66 | 1008.4 |
| 20260505011949 | 76 | 114 | 4.0 | 6.0 | 0.00 | 0.00 | 0.00 | 65 | 1008.5 |
| 20260505011445 | 76 | 132 | 3.0 | 4.0 | 0.00 | 0.00 | 0.00 | 65 | 1008.5 |
| 20260505010942 | 77 | 236 | 3.0 | 7.0 | 0.00 | 0.00 | 0.00 | 65 | 1008.4 |
| 20260505010438 | 77 | 133 | 4.0 | 9.0 | 0.00 | 0.00 | 0.00 | 65 | 1008.2 |
| 20260505005934 | 77 | 85 | 4.0 | 9.0 | 0.00 | 0.00 | 0.00 | 64 | 1008.3 |
| 20260505005431 | 77 | 223 | 1.0 | 7.0 | 0.00 | 0.00 | 0.00 | 64 | 1008.0 |